createdAt,value
2023-01-26T00:01:38.684Z,5.50
2023-01-26T00:06:40.560Z,5.50
2023-01-26T00:11:42.767Z,5.40
2023-01-26T00:16:44.672Z,5.30
2023-01-26T00:21:46.523Z,5.30
2023-01-26T00:26:48.351Z,5.20
2023-01-26T00:31:50.281Z,5.30
2023-01-26T00:36:52.189Z,5.30
2023-01-26T00:42:13.974Z,5.30
2023-01-26T00:47:18.076Z,5.30
2023-01-26T00:52:19.991Z,5.30
2023-01-26T00:57:21.860Z,5.30
2023-01-26T01:02:23.717Z,5.40
2023-01-26T01:07:25.639Z,5.30
2023-01-26T01:12:28.237Z,5.40
2023-01-26T01:17:30.049Z,5.50
2023-01-26T01:22:33.168Z,5.60
2023-01-26T01:27:35.033Z,5.60
2023-01-26T01:32:37.113Z,5.60
2023-01-26T01:37:39.005Z,5.60
2023-01-26T01:42:47.435Z,5.60
2023-01-26T01:47:49.299Z,5.60
2023-01-26T01:52:54.104Z,5.70
2023-01-26T01:58:00.554Z,5.70
2023-01-26T02:03:19.327Z,5.70
2023-01-26T02:08:27.592Z,5.60
2023-01-26T02:13:31.694Z,5.50
2023-01-26T02:18:33.693Z,5.60
2023-01-26T02:24:06.794Z,5.60
2023-01-26T02:29:11.696Z,5.60
2023-01-26T02:34:17.377Z,5.60
2023-01-26T02:39:43.299Z,5.70
2023-01-26T02:44:45.280Z,5.70
2023-01-26T02:49:47.474Z,5.70
2023-01-26T02:55:09.109Z,5.70
2023-01-26T03:00:15.582Z,5.70
2023-01-26T03:05:17.538Z,5.60
2023-01-26T03:10:19.655Z,5.70
2023-01-26T03:15:40.003Z,5.50
2023-01-26T03:21:00.363Z,5.40
2023-01-26T03:26:21.136Z,5.30
2023-01-26T03:31:23.143Z,5.30
2023-01-26T03:36:25.030Z,5.20
2023-01-26T03:41:45.639Z,5.20
2023-01-26T03:47:06.078Z,5.30
2023-01-26T03:52:27.795Z,5.20
2023-01-26T03:57:29.962Z,5.10
2023-01-26T04:02:52.064Z,5.10
2023-01-26T04:08:20.715Z,5.10
2023-01-26T04:13:43.137Z,5.20
2023-01-26T04:19:08.539Z,5.10
2023-01-26T04:24:16.632Z,5.00
2023-01-26T04:29:19.608Z,5.10
2023-01-26T04:34:22.249Z,5.20
2023-01-26T04:39:24.419Z,5.20
2023-01-26T04:44:29.972Z,5.20
2023-01-26T04:49:32.758Z,5.20
2023-01-26T04:54:34.734Z,5.20
2023-01-26T04:59:37.152Z,5.20
2023-01-26T05:04:39.159Z,5.20
2023-01-26T05:09:41.222Z,5.20
2023-01-26T05:14:58.697Z,5.20
2023-01-26T05:20:27.311Z,5.30
2023-01-26T05:25:39.218Z,5.40
2023-01-26T05:30:45.455Z,5.40
2023-01-26T05:35:53.890Z,5.40
2023-01-26T05:40:56.067Z,5.30
2023-01-26T05:45:59.543Z,5.30
2023-01-26T05:51:03.954Z,5.30
2023-01-26T05:56:12.115Z,5.40
2023-01-26T06:01:19.668Z,5.40
2023-01-26T06:06:29.142Z,5.50
2023-01-26T06:11:47.144Z,5.60
2023-01-26T06:17:28.412Z,5.50
2023-01-26T06:22:34.392Z,5.40
2023-01-26T06:27:36.664Z,5.30
2023-01-26T06:32:48.069Z,5.20
2023-01-26T06:37:52.949Z,5.10
2023-01-26T06:42:56.050Z,5.00
2023-01-26T06:47:58.630Z,5.00
2023-01-26T06:53:14.009Z,5.00
2023-01-26T06:58:26.269Z,5.00
2023-01-26T07:03:50.833Z,4.90
2023-01-26T07:08:52.775Z,4.80
2023-01-26T07:13:54.655Z,4.80
2023-01-26T07:18:57.024Z,4.80
2023-01-26T07:23:58.963Z,4.80
2023-01-26T07:29:00.979Z,4.70
2023-01-26T07:34:02.788Z,4.60
2023-01-26T07:39:08.205Z,4.60
2023-01-26T07:44:10.864Z,4.50
2023-01-26T07:49:15.506Z,4.50
2023-01-26T07:54:17.273Z,4.50
2023-01-26T07:59:19.054Z,4.50
2023-01-26T08:04:20.901Z,4.50
2023-01-26T08:09:22.763Z,4.50
2023-01-26T08:14:24.897Z,4.60
2023-01-26T08:19:26.689Z,4.60
2023-01-26T08:24:28.604Z,4.60
2023-01-26T08:29:30.507Z,4.60
2023-01-26T08:34:32.495Z,4.60
2023-01-26T08:39:34.760Z,4.70
2023-01-26T08:44:36.613Z,4.60
2023-01-26T08:49:38.411Z,4.70
2023-01-26T08:54:40.229Z,4.80
2023-01-26T08:59:42.060Z,4.80
2023-01-26T09:04:43.909Z,4.90
2023-01-26T09:09:45.771Z,5.00
2023-01-26T09:14:47.643Z,5.00
2023-01-26T09:19:49.445Z,4.90
2023-01-26T09:24:51.353Z,4.90
2023-01-26T09:29:54.045Z,4.90
2023-01-26T09:34:56.219Z,5.00
2023-01-26T09:39:58.024Z,5.00
2023-01-26T09:45:12.216Z,5.00
2023-01-26T09:50:44.203Z,5.00
2023-01-26T09:55:48.489Z,5.00
2023-01-26T10:00:55.444Z,5.00
2023-01-26T10:06:22.941Z,5.00
2023-01-26T10:11:49.717Z,5.20
2023-01-26T10:16:53.805Z,5.20
2023-01-26T10:21:58.772Z,5.10
2023-01-26T10:27:00.845Z,5.10
2023-01-26T10:32:03.372Z,5.00
2023-01-26T10:37:29.741Z,5.10
2023-01-26T10:42:34.331Z,5.10
2023-01-26T10:47:36.347Z,5.20
2023-01-26T10:52:38.189Z,5.20
2023-01-26T10:57:42.795Z,5.30
2023-01-26T11:02:51.212Z,5.30
2023-01-26T11:08:02.274Z,5.30
2023-01-26T11:13:20.404Z,5.40
2023-01-26T11:18:50.263Z,5.50
2023-01-26T11:24:09.302Z,5.50
2023-01-26T11:29:11.219Z,5.50
2023-01-26T11:34:32.531Z,5.50
2023-01-26T11:40:01.817Z,5.60
2023-01-26T11:45:22.021Z,5.50
2023-01-26T11:50:36.028Z,5.60
2023-01-26T11:55:40.875Z,5.50
2023-01-26T12:01:03.210Z,5.50
2023-01-26T12:06:08.199Z,5.50
2023-01-26T12:11:46.658Z,5.50
2023-01-26T12:17:11.545Z,5.60
2023-01-26T12:22:28.409Z,5.60
2023-01-26T12:27:47.503Z,5.50
2023-01-26T12:32:49.599Z,5.50
2023-01-26T12:38:17.323Z,5.50
2023-01-26T12:43:28.929Z,5.60
2023-01-26T12:48:53.557Z,5.70
2023-01-26T12:54:00.819Z,5.70
2023-01-26T12:59:23.102Z,5.70
2023-01-26T13:04:36.392Z,5.70
2023-01-26T13:09:38.278Z,5.80
2023-01-26T13:14:43.170Z,5.80
2023-01-26T13:19:44.998Z,5.80
2023-01-26T13:24:49.165Z,5.80
2023-01-26T13:29:55.714Z,5.80
2023-01-26T13:35:02.580Z,5.70
2023-01-26T13:40:18.595Z,5.70
2023-01-26T13:45:33.940Z,5.70
2023-01-26T13:50:39.430Z,5.60
2023-01-26T13:55:42.241Z,5.70
2023-01-26T14:00:58.813Z,5.70
2023-01-26T14:06:09.143Z,5.70
2023-01-26T14:11:20.317Z,5.70
2023-01-26T14:16:33.092Z,5.70
2023-01-26T14:21:50.788Z,5.70
2023-01-26T14:26:52.898Z,5.70
2023-01-26T14:31:57.941Z,5.70
2023-01-26T14:37:12.031Z,5.70
2023-01-26T14:42:20.679Z,5.70
2023-01-26T14:47:30.297Z,5.60
2023-01-26T14:52:40.423Z,5.60
2023-01-26T14:57:42.400Z,5.50
2023-01-26T15:02:47.305Z,5.50
2023-01-26T15:07:56.565Z,5.50
2023-01-26T15:13:10.084Z,5.60
2023-01-26T15:18:14.941Z,5.50
2023-01-26T15:23:22.863Z,5.60
2023-01-26T15:28:26.005Z,5.60
2023-01-26T15:33:44.330Z,5.60
2023-01-26T15:38:47.277Z,5.60
2023-01-26T15:43:49.186Z,5.60
2023-01-26T15:48:51.125Z,5.60
2023-01-26T15:53:53.024Z,5.60
2023-01-26T15:58:54.902Z,5.50
2023-01-26T16:03:56.804Z,5.50
2023-01-26T16:08:59.461Z,5.60
2023-01-26T16:14:04.276Z,5.60
2023-01-26T16:19:06.403Z,5.60
2023-01-26T16:24:10.923Z,5.50
2023-01-26T16:29:12.744Z,5.60
2023-01-26T16:34:14.653Z,5.70
2023-01-26T16:39:17.160Z,5.60
2023-01-26T16:44:19.627Z,5.60
2023-01-26T16:49:21.430Z,5.60
2023-01-26T16:54:23.262Z,5.50
2023-01-26T16:59:25.203Z,5.60
2023-01-26T17:04:27.111Z,5.60
2023-01-26T17:09:29.045Z,5.60
2023-01-26T17:14:31.039Z,5.70
2023-01-26T17:19:32.979Z,5.70
2023-01-26T17:24:34.898Z,5.70
2023-01-26T17:29:37.249Z,5.70
2023-01-26T17:34:39.331Z,5.70
2023-01-26T17:39:41.458Z,5.80
2023-01-26T17:44:43.532Z,5.70
2023-01-26T17:49:45.478Z,5.70
2023-01-26T17:54:47.484Z,5.70
2023-01-26T17:59:50.056Z,5.60
2023-01-26T18:04:52.068Z,5.70
2023-01-26T18:09:54.195Z,5.70
2023-01-26T18:14:56.505Z,5.70
2023-01-26T18:20:01.819Z,5.80
2023-01-26T18:25:04.285Z,5.80
2023-01-26T18:30:07.094Z,5.80
2023-01-26T18:35:17.514Z,5.70
2023-01-26T18:40:19.812Z,5.70
2023-01-26T18:45:22.489Z,5.70
2023-01-26T18:50:24.475Z,5.70
2023-01-26T18:56:22.749Z,5.60
2023-01-26T19:01:26.062Z,5.70
2023-01-26T19:06:29.266Z,5.60
2023-01-26T19:11:34.313Z,5.60
2023-01-26T19:16:37.342Z,5.60
2023-01-26T19:21:39.549Z,5.60
2023-01-26T19:26:42.180Z,5.50
2023-01-26T19:31:44.410Z,5.50
2023-01-26T19:36:47.044Z,5.60
2023-01-26T19:41:50.370Z,5.60
2023-01-26T19:46:55.107Z,5.60
2023-01-26T19:51:57.219Z,5.70
2023-01-26T19:57:00.684Z,5.60
2023-01-26T20:02:02.780Z,5.70
2023-01-26T20:07:06.810Z,5.50
2023-01-26T20:12:11.173Z,5.40
2023-01-26T20:17:13.569Z,5.50
2023-01-26T20:22:15.676Z,5.40
2023-01-26T20:27:17.762Z,5.30
2023-01-26T20:32:20.316Z,5.40
2023-01-26T20:37:22.285Z,5.30
2023-01-26T20:42:24.873Z,5.40
2023-01-26T20:47:27.156Z,5.30
2023-01-26T20:52:30.207Z,5.30
2023-01-26T20:57:32.751Z,5.30
2023-01-26T21:02:35.092Z,5.20
2023-01-26T21:07:37.479Z,5.30
2023-01-26T21:12:39.657Z,5.30
2023-01-26T21:17:42.000Z,5.20
2023-01-26T21:22:44.235Z,5.30
2023-01-26T21:27:46.435Z,5.30
2023-01-26T21:32:48.506Z,5.30
2023-01-26T21:37:50.682Z,5.30
2023-01-26T21:42:53.146Z,5.30
2023-01-26T21:48:13.811Z,5.10
2023-01-26T21:53:16.017Z,5.10
2023-01-26T21:58:36.829Z,5.20
2023-01-26T22:03:38.844Z,5.30
2023-01-26T22:08:40.964Z,5.30
2023-01-26T22:13:44.261Z,5.40
2023-01-26T22:18:47.838Z,5.40
2023-01-26T22:23:50.650Z,5.40
2023-01-26T22:28:55.133Z,5.30
2023-01-26T22:33:59.079Z,5.30
2023-01-26T22:39:01.348Z,5.20
2023-01-26T22:44:03.815Z,5.20
2023-01-26T22:49:06.363Z,5.20
2023-01-26T22:54:08.618Z,5.20
2023-01-26T22:59:10.763Z,5.10
2023-01-26T23:04:12.777Z,5.00
2023-01-26T23:09:15.276Z,5.00
2023-01-26T23:14:36.497Z,5.00
2023-01-26T23:19:38.663Z,5.00
2023-01-26T23:24:40.775Z,5.10
2023-01-26T23:29:42.896Z,5.10
2023-01-26T23:34:44.907Z,5.20
2023-01-26T23:39:47.107Z,5.20
2023-01-26T23:44:52.077Z,5.30
2023-01-26T23:49:54.256Z,5.20
2023-01-26T23:54:56.650Z,5.10
2023-01-26T23:59:58.928Z,5.20
